createdAt,value
2023-10-01T00:01:03.186Z,67.66
2023-10-01T00:03:30.315Z,67.94
2023-10-01T00:05:59.923Z,68.15
2023-10-01T00:08:27.005Z,67.86
2023-10-01T00:10:54.538Z,68.22
2023-10-01T00:13:21.742Z,68.34
2023-10-01T00:15:49.677Z,68.43
2023-10-01T00:18:16.742Z,68.88
2023-10-01T00:20:43.733Z,68.72
2023-10-01T00:23:13.510Z,68.62
2023-10-01T00:25:40.594Z,69.01
2023-10-01T00:28:07.594Z,69.18
2023-10-01T00:30:35.577Z,68.98
2023-10-01T00:33:05.660Z,69.55
2023-10-01T00:35:32.632Z,69.48
2023-10-01T00:37:59.746Z,69.94
2023-10-01T00:40:29.319Z,69.64
2023-10-01T00:42:56.360Z,69.75
2023-10-01T00:45:23.388Z,69.56
2023-10-01T00:47:51.258Z,69.64
2023-10-01T00:50:21.813Z,69.74
2023-10-01T00:52:50.378Z,69.63
2023-10-01T00:55:18.083Z,69.70
2023-10-01T00:57:48.018Z,70.26
2023-10-01T01:00:17.016Z,70.06
2023-10-01T01:02:46.108Z,69.97
2023-10-01T01:05:15.054Z,69.59
2023-10-01T01:07:42.113Z,69.83
2023-10-01T01:10:10.168Z,70.49
2023-10-01T01:12:37.203Z,70.47
2023-10-01T01:15:08.035Z,69.79
2023-10-01T01:17:34.987Z,69.78
2023-10-01T01:20:02.006Z,69.71
2023-10-01T01:22:31.578Z,70.01
2023-10-01T01:24:59.092Z,70.20
2023-10-01T01:27:26.059Z,69.96
2023-10-01T01:29:52.998Z,70.54
2023-10-01T01:32:19.970Z,70.21
2023-10-01T01:34:47.378Z,70.92
2023-10-01T01:37:14.466Z,71.02
2023-10-01T01:39:49.829Z,71.22
2023-10-01T01:42:17.084Z,71.48
2023-10-01T01:44:44.007Z,72.18
2023-10-01T01:47:11.188Z,72.14
2023-10-01T01:49:38.170Z,72.05
2023-10-01T01:52:05.635Z,72.57
2023-10-01T01:54:34.198Z,72.37
2023-10-01T01:57:04.091Z,72.16
2023-10-01T01:59:31.372Z,72.41
2023-10-01T02:01:58.783Z,72.10
2023-10-01T02:04:26.345Z,72.68
2023-10-01T02:06:53.369Z,72.91
2023-10-01T02:09:20.581Z,72.78
2023-10-01T02:11:51.252Z,72.82
2023-10-01T02:14:20.806Z,73.28
2023-10-01T02:16:47.741Z,73.09
2023-10-01T02:19:14.863Z,72.99
2023-10-01T02:21:42.551Z,73.26
2023-10-01T02:24:09.844Z,73.55
2023-10-01T02:26:36.829Z,73.22
2023-10-01T02:29:03.819Z,73.03
2023-10-01T02:31:33.578Z,73.16
2023-10-01T02:34:00.665Z,73.59
2023-10-01T02:36:27.711Z,73.90
2023-10-01T02:38:54.678Z,73.84
2023-10-01T02:41:22.987Z,73.62
2023-10-01T02:43:49.894Z,73.95
2023-10-01T02:46:17.173Z,74.04
2023-10-01T02:48:47.025Z,73.82
2023-10-01T02:51:13.974Z,73.80
2023-10-01T02:53:41.569Z,74.39
2023-10-01T02:56:08.538Z,74.33
2023-10-01T02:58:35.571Z,73.67
2023-10-01T03:01:04.953Z,73.62
2023-10-01T03:03:32.022Z,74.20
2023-10-01T03:06:01.940Z,73.70
2023-10-01T03:08:28.964Z,73.60
2023-10-01T03:10:55.999Z,74.24
2023-10-01T03:13:23.098Z,74.18
2023-10-01T03:15:50.149Z,74.10
2023-10-01T03:18:17.163Z,74.27
2023-10-01T03:20:44.172Z,74.44
2023-10-01T03:23:16.372Z,73.94
2023-10-01T03:25:43.329Z,74.36
2023-10-01T03:28:11.465Z,73.50
2023-10-01T03:30:41.298Z,73.58
2023-10-01T03:33:08.447Z,73.59
2023-10-01T03:35:35.444Z,73.80
2023-10-01T03:38:02.637Z,74.31
2023-10-01T03:40:32.245Z,74.23
2023-10-01T03:42:59.275Z,74.41
2023-10-01T03:45:26.376Z,74.69
2023-10-01T03:47:53.456Z,73.76
2023-10-01T03:50:20.414Z,73.99
2023-10-01T03:52:47.381Z,73.60
2023-10-01T03:55:14.545Z,73.24
2023-10-01T03:57:44.137Z,73.63
2023-10-01T04:00:11.777Z,73.56
2023-10-01T04:02:38.845Z,73.67
2023-10-01T04:05:06.472Z,73.81
2023-10-01T04:07:33.446Z,73.63
2023-10-01T04:10:00.468Z,73.72
2023-10-01T04:12:27.480Z,73.77
2023-10-01T04:14:57.063Z,73.85
2023-10-01T04:17:24.098Z,73.84
2023-10-01T04:19:51.527Z,73.60
2023-10-01T04:22:18.555Z,73.84
2023-10-01T04:24:45.539Z,73.63
2023-10-01T04:27:12.557Z,73.38
2023-10-01T04:29:39.565Z,73.75
2023-10-01T04:32:09.149Z,73.05
2023-10-01T04:34:36.173Z,73.38
2023-10-01T04:37:03.271Z,73.46
2023-10-01T04:39:30.294Z,73.40
2023-10-01T04:41:57.248Z,73.36
2023-10-01T04:44:24.171Z,73.70
2023-10-01T04:46:51.142Z,73.63
2023-10-01T04:49:32.849Z,73.92
2023-10-01T04:52:02.756Z,73.95
2023-10-01T04:54:29.760Z,74.15
2023-10-01T04:56:56.762Z,73.96
2023-10-01T04:59:23.693Z,74.36
2023-10-01T05:01:50.814Z,74.85
2023-10-01T05:04:20.544Z,74.94
2023-10-01T05:06:47.649Z,75.15
2023-10-01T05:09:14.650Z,74.98
2023-10-01T05:11:41.695Z,75.51
2023-10-01T05:14:08.674Z,75.05
2023-10-01T05:16:35.676Z,74.57
2023-10-01T05:19:02.802Z,74.41
2023-10-01T05:21:32.390Z,74.55
2023-10-01T05:23:59.324Z,74.92
2023-10-01T05:26:26.266Z,75.23
2023-10-01T05:28:53.284Z,75.26
2023-10-01T05:31:20.250Z,75.45
2023-10-01T05:33:47.457Z,74.91
2023-10-01T05:36:15.182Z,75.04
2023-10-01T05:38:44.719Z,74.53
2023-10-01T05:41:12.887Z,74.56
2023-10-01T05:43:41.084Z,74.67
2023-10-01T05:46:08.300Z,74.40
2023-10-01T05:48:35.562Z,74.25
2023-10-01T05:51:02.831Z,74.50
2023-10-01T05:53:29.756Z,74.55
2023-10-01T05:56:05.117Z,74.48
2023-10-01T05:58:32.165Z,74.14
2023-10-01T06:00:59.319Z,74.01
2023-10-01T06:03:27.589Z,73.70
2023-10-01T06:05:55.085Z,74.27
2023-10-01T06:08:22.043Z,73.83
2023-10-01T06:10:49.200Z,73.56
2023-10-01T06:13:18.941Z,73.42
2023-10-01T06:15:46.251Z,73.77
2023-10-01T06:18:13.265Z,73.08
2023-10-01T06:20:40.192Z,73.32
2023-10-01T06:23:07.158Z,73.43
2023-10-01T06:25:34.194Z,73.21
2023-10-01T06:28:01.232Z,72.98
2023-10-01T06:30:30.782Z,72.68
2023-10-01T06:32:57.753Z,72.87
2023-10-01T06:35:24.768Z,72.56
2023-10-01T06:37:52.138Z,72.27
2023-10-01T06:40:19.267Z,72.25
2023-10-01T06:42:46.271Z,72.44
2023-10-01T06:45:13.681Z,72.17
2023-10-01T06:47:43.369Z,72.38
2023-10-01T06:50:10.574Z,72.21
2023-10-01T06:52:38.433Z,72.29
2023-10-01T06:55:06.252Z,72.78
2023-10-01T06:57:33.347Z,72.43
2023-10-01T07:00:00.377Z,72.20
2023-10-01T07:02:29.012Z,72.52
2023-10-01T07:07:29.940Z,71.70
2023-10-01T07:09:57.681Z,72.58
2023-10-01T07:12:25.416Z,72.90
2023-10-01T07:14:53.151Z,73.01
2023-10-01T07:17:22.358Z,73.11
2023-10-01T07:19:49.687Z,73.88
2023-10-01T07:22:19.296Z,73.59
2023-10-01T07:24:46.261Z,72.64
2023-10-01T07:27:13.316Z,73.43
2023-10-01T07:29:41.713Z,73.16
2023-10-01T07:32:10.360Z,73.49
2023-10-01T07:34:37.641Z,72.44
2023-10-01T07:37:04.718Z,73.12
2023-10-01T07:39:38.616Z,72.91
2023-10-01T07:42:06.495Z,72.87
2023-10-01T07:44:34.279Z,73.59
2023-10-01T07:47:01.332Z,73.58
2023-10-01T07:49:28.400Z,73.46
2023-10-01T07:51:55.441Z,73.66
2023-10-01T07:54:22.385Z,73.61
2023-10-01T07:56:51.969Z,73.33
2023-10-01T07:59:19.362Z,72.50
2023-10-01T08:01:46.390Z,72.41
2023-10-01T08:04:14.461Z,72.69
2023-10-01T08:06:41.537Z,72.80
2023-10-01T08:09:09.694Z,72.60
2023-10-01T08:11:36.724Z,72.67
2023-10-01T08:14:06.280Z,72.16
2023-10-01T08:16:33.369Z,71.95
2023-10-01T08:19:00.621Z,71.82
2023-10-01T08:21:27.989Z,71.14
2023-10-01T08:23:54.938Z,70.92
2023-10-01T08:26:22.726Z,71.54
2023-10-01T08:28:49.727Z,71.18
2023-10-01T08:31:19.414Z,70.70
2023-10-01T08:33:46.508Z,70.77
2023-10-01T08:36:13.450Z,70.72
2023-10-01T08:38:41.255Z,70.08
2023-10-01T08:41:08.707Z,70.07
2023-10-01T08:43:36.101Z,70.25
2023-10-01T08:46:14.276Z,69.90
2023-10-01T08:48:44.534Z,69.52
2023-10-01T08:51:11.595Z,69.41
2023-10-01T08:53:39.761Z,69.46
2023-10-01T08:56:07.589Z,69.66
2023-10-01T08:58:37.449Z,68.81
2023-10-01T09:01:04.392Z,68.94
2023-10-01T09:03:32.389Z,68.35
2023-10-01T09:06:03.916Z,67.78
2023-10-01T09:08:32.113Z,66.89
2023-10-01T09:11:00.719Z,66.98
2023-10-01T09:13:28.195Z,66.59
2023-10-01T09:15:55.330Z,66.45
2023-10-01T09:18:24.037Z,66.82
2023-10-01T09:20:51.946Z,66.33
2023-10-01T09:23:21.495Z,65.87
2023-10-01T09:25:57.003Z,64.86
2023-10-01T09:28:35.077Z,64.33
2023-10-01T09:31:03.630Z,63.74
2023-10-01T09:33:30.755Z,63.73
2023-10-01T09:35:57.789Z,63.36
2023-10-01T09:38:27.653Z,62.61
2023-10-01T09:40:56.562Z,62.60
2023-10-01T09:43:24.558Z,62.36
2023-10-01T09:45:53.442Z,62.00
2023-10-01T09:48:22.841Z,61.84
2023-10-01T09:50:50.375Z,61.43
2023-10-01T09:53:28.574Z,60.87
2023-10-01T09:55:57.242Z,60.92
2023-10-01T09:58:25.469Z,59.46
2023-10-01T10:00:56.973Z,59.08
2023-10-01T10:03:25.630Z,59.31
2023-10-01T10:05:53.183Z,58.92
2023-10-01T10:08:20.828Z,58.19
2023-10-01T10:10:53.584Z,57.34
2023-10-01T10:13:37.486Z,57.08
2023-10-01T10:16:05.024Z,57.02
2023-10-01T10:19:05.045Z,55.63
2023-10-01T10:22:01.905Z,53.27
2023-10-01T10:24:29.892Z,53.47
2023-10-01T10:27:00.744Z,52.54
2023-10-01T10:30:09.002Z,50.84
2023-10-01T10:32:37.298Z,51.40
2023-10-01T10:35:22.330Z,50.56
2023-10-01T10:37:49.396Z,49.43
2023-10-01T10:40:16.638Z,49.47
2023-10-01T10:43:12.944Z,48.89
2023-10-01T10:45:40.041Z,48.36
2023-10-01T10:48:11.752Z,48.64
2023-10-01T10:50:40.651Z,46.91
2023-10-01T10:53:07.628Z,47.46
2023-10-01T10:55:34.734Z,46.03
2023-10-01T10:58:08.751Z,44.04
2023-10-01T11:00:35.764Z,39.46
2023-10-01T11:03:02.886Z,36.46
2023-10-01T11:05:30.518Z,34.68
2023-10-01T11:07:58.017Z,30.99
2023-10-01T11:10:25.154Z,30.00
2023-10-01T11:12:52.224Z,27.08
2023-10-01T11:15:22.018Z,25.62
2023-10-01T11:17:49.209Z,24.61
2023-10-01T11:20:16.764Z,22.38
2023-10-01T11:22:43.973Z,21.23
2023-10-01T11:25:11.084Z,22.54
2023-10-01T11:27:38.107Z,20.06
2023-10-01T11:30:08.611Z,18.04
2023-10-01T11:32:54.307Z,17.06
2023-10-01T11:35:24.160Z,15.77
2023-10-01T11:37:51.126Z,15.82
2023-10-01T11:40:18.225Z,14.10
2023-10-01T11:42:45.297Z,14.01
2023-10-01T11:45:22.859Z,14.01
2023-10-01T11:47:50.042Z,13.16
2023-10-01T11:50:19.690Z,16.07
2023-10-01T11:53:03.723Z,16.41
2023-10-01T11:55:30.827Z,17.34
2023-10-01T11:57:57.802Z,14.26
2023-10-01T12:00:24.853Z,13.74
2023-10-01T12:02:51.940Z,14.83
2023-10-01T12:05:21.514Z,13.06
2023-10-01T12:07:48.681Z,13.19
2023-10-01T12:10:16.124Z,11.37
2023-10-01T12:12:43.125Z,11.56
2023-10-01T12:15:11.315Z,11.96
2023-10-01T12:17:38.342Z,12.20
2023-10-01T12:20:06.776Z,12.07
2023-10-01T12:22:36.397Z,10.71
2023-10-01T12:25:03.450Z,10.03
2023-10-01T12:27:32.312Z,10.54
2023-10-01T12:29:59.338Z,10.19
2023-10-01T12:32:26.369Z,9.83
2023-10-01T12:34:53.343Z,9.40
2023-10-01T12:37:20.360Z,9.44
2023-10-01T12:39:49.902Z,9.26
2023-10-01T12:42:16.885Z,9.54
2023-10-01T12:44:43.856Z,8.95
2023-10-01T12:47:10.840Z,9.04
2023-10-01T12:49:38.218Z,9.29
2023-10-01T12:52:07.097Z,8.72
2023-10-01T12:54:34.058Z,8.81
2023-10-01T12:57:05.029Z,10.14
2023-10-01T12:59:33.470Z,8.64
2023-10-01T13:02:00.531Z,8.77
2023-10-01T13:04:27.656Z,9.17
2023-10-01T13:06:55.425Z,9.12
2023-10-01T13:09:22.400Z,8.49
2023-10-01T13:11:49.345Z,10.76
2023-10-01T13:14:27.222Z,9.23
2023-10-01T13:17:05.084Z,8.13
2023-10-01T13:19:32.166Z,7.91
2023-10-01T13:21:59.170Z,8.05
2023-10-01T13:24:26.157Z,8.07
2023-10-01T13:26:53.239Z,8.69
2023-10-01T13:29:22.768Z,9.46
2023-10-01T13:31:49.826Z,9.69
2023-10-01T13:34:16.962Z,9.51
2023-10-01T13:36:43.943Z,9.99
2023-10-01T13:39:10.873Z,8.26
2023-10-01T13:41:38.033Z,8.74
2023-10-01T13:44:05.934Z,8.43
2023-10-01T13:46:35.542Z,9.40
2023-10-01T13:49:02.703Z,9.25
2023-10-01T13:51:29.710Z,9.44
2023-10-01T13:53:56.682Z,8.69
2023-10-01T13:56:23.746Z,9.82
2023-10-01T13:58:50.727Z,9.21
2023-10-01T14:01:17.882Z,9.23
2023-10-01T14:03:47.478Z,9.01
2023-10-01T14:06:14.455Z,9.21
2023-10-01T14:08:41.402Z,9.97
2023-10-01T14:11:08.807Z,9.65
2023-10-01T14:13:36.679Z,9.59
2023-10-01T14:16:04.914Z,9.85
2023-10-01T14:18:36.702Z,9.84
2023-10-01T14:21:07.405Z,9.33
2023-10-01T14:23:34.411Z,10.69
2023-10-01T14:26:01.381Z,11.13
2023-10-01T14:28:28.972Z,12.37
2023-10-01T14:30:58.054Z,13.64
2023-10-01T14:33:25.084Z,14.37
2023-10-01T14:35:52.986Z,13.32
2023-10-01T14:38:26.185Z,15.53
2023-10-01T14:40:53.204Z,16.74
2023-10-01T14:43:20.218Z,16.31
2023-10-01T14:45:47.156Z,16.65
2023-10-01T14:48:14.306Z,16.97
2023-10-01T14:50:41.314Z,14.35
2023-10-01T14:53:09.289Z,14.18
2023-10-01T14:55:38.900Z,16.18
2023-10-01T14:58:05.879Z,18.20
2023-10-01T15:00:32.812Z,17.98
2023-10-01T15:02:59.819Z,19.47
2023-10-01T15:05:26.837Z,18.69
2023-10-01T15:07:53.814Z,18.23
2023-10-01T15:10:20.886Z,19.52
2023-10-01T15:12:53.621Z,17.08
2023-10-01T15:15:47.379Z,22.51
2023-10-01T15:18:20.060Z,25.09
2023-10-01T15:20:47.873Z,26.28
2023-10-01T15:23:14.905Z,27.10
2023-10-01T15:25:41.878Z,27.69
2023-10-01T15:28:11.577Z,29.28
2023-10-01T15:30:38.638Z,27.44
2023-10-01T15:33:06.078Z,23.86
2023-10-01T15:35:33.197Z,22.76
2023-10-01T15:38:00.530Z,21.04
2023-10-01T15:40:27.572Z,19.92
2023-10-01T15:42:54.632Z,20.04
2023-10-01T15:45:24.813Z,20.15
2023-10-01T15:47:51.876Z,19.96
2023-10-01T15:50:20.525Z,19.49
2023-10-01T15:52:49.825Z,20.50
2023-10-01T15:55:18.762Z,21.13
2023-10-01T15:57:48.300Z,20.95
2023-10-01T16:00:15.992Z,21.31
2023-10-01T16:02:45.770Z,21.26
2023-10-01T16:05:12.990Z,21.99
2023-10-01T16:07:40.117Z,22.31
2023-10-01T16:10:08.140Z,22.45
2023-10-01T16:12:37.709Z,23.30
2023-10-01T16:15:06.341Z,23.70
2023-10-01T16:17:34.064Z,24.61
2023-10-01T16:20:04.241Z,26.46
2023-10-01T16:22:31.349Z,28.44
2023-10-01T16:25:00.738Z,32.02
2023-10-01T16:27:29.372Z,32.53
2023-10-01T16:30:01.637Z,33.81
2023-10-01T16:32:28.729Z,34.36
2023-10-01T16:34:55.847Z,36.80
2023-10-01T16:37:25.531Z,37.82
2023-10-01T16:39:52.752Z,38.19
2023-10-01T16:42:19.712Z,37.54
2023-10-01T16:44:46.711Z,38.05
2023-10-01T16:47:13.963Z,39.34
2023-10-01T16:49:42.131Z,40.13
2023-10-01T16:52:09.120Z,39.62
2023-10-01T16:54:40.134Z,41.57
2023-10-01T16:57:11.425Z,41.48
2023-10-01T16:59:49.582Z,43.13
2023-10-01T17:02:16.667Z,43.56
2023-10-01T17:04:43.814Z,43.77
2023-10-01T17:07:11.125Z,45.15
2023-10-01T17:09:40.810Z,45.78
2023-10-01T17:12:07.836Z,44.73
2023-10-01T17:14:34.806Z,46.37
2023-10-01T17:17:02.393Z,47.22
2023-10-01T17:19:30.694Z,47.71
2023-10-01T17:21:58.787Z,48.08
2023-10-01T17:24:26.877Z,48.78
2023-10-01T17:27:02.389Z,48.87
2023-10-01T17:29:30.563Z,48.87
2023-10-01T17:31:59.375Z,49.87
2023-10-01T17:34:31.239Z,50.69
2023-10-01T17:37:02.927Z,49.86
2023-10-01T17:39:30.940Z,50.42
2023-10-01T17:42:02.276Z,51.07
2023-10-01T17:44:30.860Z,51.24
2023-10-01T17:46:59.771Z,51.45
2023-10-01T17:49:28.166Z,51.97
2023-10-01T17:51:56.630Z,52.13
2023-10-01T17:54:24.672Z,52.52
2023-10-01T17:56:52.910Z,52.72
2023-10-01T17:59:22.666Z,52.71
2023-10-01T18:01:50.534Z,52.76
2023-10-01T18:04:20.732Z,52.79
2023-10-01T18:06:49.240Z,52.89
2023-10-01T18:09:16.799Z,53.46
2023-10-01T18:11:43.800Z,53.80
2023-10-01T18:14:10.746Z,54.35
2023-10-01T18:16:40.422Z,54.47
2023-10-01T18:19:07.470Z,55.21
2023-10-01T18:21:35.238Z,55.06
2023-10-01T18:24:02.283Z,55.45
2023-10-01T18:26:29.375Z,56.01
2023-10-01T18:28:56.405Z,55.71
2023-10-01T18:31:23.522Z,55.78
2023-10-01T18:33:53.128Z,56.15
2023-10-01T18:36:20.535Z,56.70
2023-10-01T18:38:48.771Z,56.76
2023-10-01T18:41:15.800Z,57.20
2023-10-01T18:43:42.782Z,57.30
2023-10-01T18:46:09.768Z,57.89
2023-10-01T18:48:36.777Z,57.80
2023-10-01T18:51:06.598Z,57.65
2023-10-01T18:53:34.313Z,58.38
2023-10-01T18:56:01.390Z,58.55
2023-10-01T18:58:28.411Z,58.77
2023-10-01T19:00:55.490Z,58.90
2023-10-01T19:03:22.585Z,59.04
2023-10-01T19:05:49.556Z,59.55
2023-10-01T19:08:19.145Z,59.65
2023-10-01T19:10:46.276Z,59.63
2023-10-01T19:13:13.283Z,60.20
2023-10-01T19:15:40.325Z,60.06
2023-10-01T19:18:07.560Z,60.95
2023-10-01T19:20:34.567Z,61.41
2023-10-01T19:23:01.572Z,61.25
2023-10-01T19:25:31.699Z,60.97
2023-10-01T19:27:59.484Z,61.68
2023-10-01T19:30:27.573Z,61.43
2023-10-01T19:32:55.942Z,62.29
2023-10-01T19:35:23.889Z,62.14
2023-10-01T19:37:52.538Z,62.35
2023-10-01T19:40:21.955Z,62.50
2023-10-01T19:42:53.766Z,62.85
2023-10-01T19:45:22.660Z,62.92
2023-10-01T19:47:50.621Z,63.32
2023-10-01T19:50:33.372Z,63.77
2023-10-01T19:53:05.703Z,63.72
2023-10-01T19:55:32.723Z,63.74
2023-10-01T19:58:02.410Z,64.15
2023-10-01T20:00:29.476Z,64.58
2023-10-01T20:03:02.715Z,64.09
2023-10-01T20:05:29.860Z,64.82
2023-10-01T20:07:58.716Z,64.94
2023-10-01T20:10:25.818Z,65.05
2023-10-01T20:12:52.840Z,64.97
2023-10-01T20:15:22.460Z,64.77
2023-10-01T20:17:49.658Z,65.49
2023-10-01T20:20:21.013Z,65.13
2023-10-01T20:22:48.220Z,65.24
2023-10-01T20:25:15.535Z,65.33
2023-10-01T20:27:42.572Z,66.08
2023-10-01T20:30:10.072Z,65.99
2023-10-01T20:32:39.828Z,65.89
2023-10-01T20:35:08.410Z,65.88
2023-10-01T20:37:35.461Z,66.33
2023-10-01T20:40:02.604Z,66.30
2023-10-01T20:42:29.603Z,66.39
2023-10-01T20:44:56.617Z,66.27
2023-10-01T20:47:24.056Z,67.05
2023-10-01T20:49:54.147Z,67.03
2023-10-01T20:52:25.134Z,66.98
2023-10-01T20:54:52.128Z,67.38
2023-10-01T20:57:19.113Z,67.66
2023-10-01T20:59:46.074Z,67.62
2023-10-01T21:02:21.437Z,67.55
2023-10-01T21:04:50.154Z,68.02
2023-10-01T21:07:21.744Z,68.03
2023-10-01T21:09:49.039Z,68.15
2023-10-01T21:12:17.551Z,68.72
2023-10-01T21:14:45.993Z,68.94
2023-10-01T21:17:14.430Z,69.40
2023-10-01T21:19:43.573Z,69.61
2023-10-01T21:22:14.276Z,69.33
2023-10-01T21:24:45.506Z,69.10
2023-10-01T21:27:14.614Z,69.23
2023-10-01T21:29:43.244Z,69.60
2023-10-01T21:32:12.786Z,69.88
2023-10-01T21:34:39.818Z,70.08
2023-10-01T21:37:07.779Z,70.25
2023-10-01T21:39:36.635Z,70.71
2023-10-01T21:42:06.486Z,69.98
2023-10-01T21:44:36.354Z,69.93
2023-10-01T21:47:05.025Z,70.56
2023-10-01T21:49:32.042Z,71.08
2023-10-01T21:52:06.011Z,70.94
2023-10-01T21:54:33.957Z,70.91
2023-10-01T21:57:01.537Z,71.10
2023-10-01T21:59:35.485Z,70.86
2023-10-01T22:02:02.507Z,71.00
2023-10-01T22:04:30.077Z,70.98
2023-10-01T22:06:57.124Z,70.83
2023-10-01T22:09:25.277Z,71.19
2023-10-01T22:11:54.115Z,71.55
2023-10-01T22:14:23.846Z,71.11
2023-10-01T22:16:53.383Z,71.03
2023-10-01T22:19:21.819Z,70.47
2023-10-01T22:21:52.019Z,70.36
2023-10-01T22:24:19.951Z,70.29
2023-10-01T22:26:48.742Z,70.13
2023-10-01T22:29:16.053Z,70.61
2023-10-01T22:31:43.242Z,70.86
2023-10-01T22:34:13.702Z,70.42
2023-10-01T22:36:41.375Z,70.47
2023-10-01T22:39:08.372Z,70.93
2023-10-01T22:41:35.467Z,71.18
2023-10-01T22:44:02.672Z,70.80
2023-10-01T22:46:30.105Z,71.05
2023-10-01T22:48:57.230Z,70.82
2023-10-01T22:51:26.844Z,70.82
2023-10-01T22:53:54.017Z,71.33
2023-10-01T22:56:20.950Z,71.56
2023-10-01T22:58:47.940Z,71.34
2023-10-01T23:01:14.912Z,71.97
2023-10-01T23:03:41.917Z,71.34
2023-10-01T23:06:08.893Z,71.52
2023-10-01T23:08:38.672Z,71.36
2023-10-01T23:11:05.946Z,71.56
2023-10-01T23:13:33.522Z,71.56
2023-10-01T23:16:00.493Z,72.16
2023-10-01T23:18:27.490Z,72.00
2023-10-01T23:20:56.285Z,72.08
2023-10-01T23:23:25.157Z,72.30
2023-10-01T23:25:55.414Z,72.01
2023-10-01T23:28:22.396Z,71.86
2023-10-01T23:30:49.356Z,71.85
2023-10-01T23:33:16.389Z,72.08
2023-10-01T23:35:57.854Z,72.65
2023-10-01T23:38:31.875Z,72.70
2023-10-01T23:41:01.522Z,72.49
2023-10-01T23:43:29.014Z,72.68
2023-10-01T23:45:56.147Z,72.80
2023-10-01T23:48:23.262Z,72.62
2023-10-01T23:50:50.217Z,72.45
2023-10-01T23:53:17.162Z,72.41
2023-10-01T23:55:44.157Z,72.65
2023-10-01T23:58:14.024Z,72.60
